createdAt,value
2022-12-31T00:00:57.250Z,2.53
2022-12-31T00:01:58.073Z,2.53
2022-12-31T00:02:57.508Z,2.52
2022-12-31T00:03:57.340Z,2.53
2022-12-31T00:04:56.541Z,2.46
2022-12-31T00:05:57.301Z,2.50
2022-12-31T00:06:57.891Z,2.55
2022-12-31T00:07:57.313Z,2.45
2022-12-31T00:08:57.588Z,2.52
2022-12-31T00:09:57.875Z,2.61
2022-12-31T00:10:57.271Z,2.74
2022-12-31T00:11:57.023Z,2.88
2022-12-31T00:12:58.052Z,2.94
2022-12-31T00:13:57.764Z,2.94
2022-12-31T00:14:57.295Z,2.94
2022-12-31T00:15:57.060Z,2.91
2022-12-31T00:16:57.914Z,2.74
2022-12-31T00:17:57.954Z,2.91
2022-12-31T00:18:57.301Z,2.83
2022-12-31T00:19:57.111Z,2.81
2022-12-31T00:20:57.277Z,2.83
2022-12-31T00:21:57.043Z,2.89
2022-12-31T00:22:57.140Z,2.82
2022-12-31T00:23:57.212Z,2.78
2022-12-31T00:24:57.189Z,2.73
2022-12-31T00:25:57.182Z,2.76
2022-12-31T00:26:57.150Z,2.71
2022-12-31T00:27:57.092Z,2.73
2022-12-31T00:28:56.916Z,2.60
2022-12-31T00:30:04.116Z,2.63
2022-12-31T00:30:56.973Z,2.68
2022-12-31T00:31:57.081Z,2.79
2022-12-31T00:32:56.900Z,2.81
2022-12-31T00:33:57.115Z,2.81
2022-12-31T00:34:56.245Z,2.85
2022-12-31T00:35:57.052Z,2.89
2022-12-31T00:36:56.920Z,2.91
2022-12-31T00:37:56.981Z,2.99
2022-12-31T00:38:56.867Z,3.10
2022-12-31T00:39:56.988Z,3.10
2022-12-31T00:40:57.162Z,3.17
2022-12-31T00:41:56.917Z,3.21
2022-12-31T00:42:56.960Z,3.18
2022-12-31T00:43:56.801Z,3.27
2022-12-31T00:44:56.870Z,3.43
2022-12-31T00:45:56.843Z,3.51
2022-12-31T00:46:56.992Z,3.56
2022-12-31T00:47:56.719Z,3.44
2022-12-31T00:48:57.030Z,3.36
2022-12-31T00:49:56.759Z,3.44
2022-12-31T00:50:57.200Z,3.47
2022-12-31T00:51:56.760Z,3.46
2022-12-31T00:52:56.841Z,3.41
2022-12-31T00:53:56.927Z,3.36
2022-12-31T00:54:56.859Z,3.61
2022-12-31T00:55:56.760Z,3.77
2022-12-31T00:56:56.900Z,3.84
2022-12-31T00:57:56.932Z,3.65
2022-12-31T00:58:56.548Z,3.58
2022-12-31T00:59:56.708Z,3.65
2022-12-31T01:00:56.618Z,3.68
2022-12-31T01:01:56.847Z,3.59
2022-12-31T01:02:56.834Z,3.52
2022-12-31T01:03:56.734Z,3.54
2022-12-31T01:04:56.631Z,3.44
2022-12-31T01:05:56.819Z,3.47
2022-12-31T01:06:56.669Z,3.54
2022-12-31T01:07:56.807Z,3.51
2022-12-31T01:08:56.548Z,3.52
2022-12-31T01:09:56.662Z,3.52
2022-12-31T01:10:56.571Z,3.51
2022-12-31T01:11:55.851Z,3.46
2022-12-31T01:12:55.841Z,3.37
2022-12-31T01:13:56.748Z,3.40
2022-12-31T01:14:56.602Z,3.22
2022-12-31T01:15:56.566Z,3.28
2022-12-31T01:16:56.607Z,3.36
2022-12-31T01:17:56.452Z,3.36
2022-12-31T01:18:56.629Z,3.36
2022-12-31T01:19:56.366Z,3.29
2022-12-31T01:20:56.621Z,3.41
2022-12-31T01:21:56.408Z,3.47
2022-12-31T01:22:56.519Z,3.66
2022-12-31T01:23:56.513Z,3.76
2022-12-31T01:24:56.659Z,3.73
2022-12-31T01:25:56.433Z,3.66
2022-12-31T01:26:56.489Z,3.59
2022-12-31T01:27:56.890Z,3.48
2022-12-31T01:28:56.546Z,3.48
2022-12-31T01:29:56.600Z,3.41
2022-12-31T01:30:56.371Z,3.37
2022-12-31T01:31:56.568Z,3.46
2022-12-31T01:32:56.295Z,3.37
2022-12-31T01:33:55.623Z,3.25
2022-12-31T01:34:56.332Z,3.44
2022-12-31T01:35:56.497Z,3.43
2022-12-31T01:36:56.219Z,3.44
2022-12-31T01:37:56.480Z,3.35
2022-12-31T01:38:55.559Z,3.24
2022-12-31T01:39:56.349Z,3.32
2022-12-31T01:40:56.287Z,3.44
2022-12-31T01:41:56.328Z,3.29
2022-12-31T01:42:56.282Z,3.12
2022-12-31T01:43:56.758Z,3.18
2022-12-31T01:44:56.303Z,3.24
2022-12-31T01:45:56.389Z,3.25
2022-12-31T01:46:56.209Z,3.40
2022-12-31T01:47:56.109Z,3.27
2022-12-31T01:48:56.259Z,3.35
2022-12-31T01:49:56.121Z,3.46
2022-12-31T01:50:56.950Z,3.41
2022-12-31T01:51:56.177Z,3.41
2022-12-31T01:52:56.250Z,3.29
2022-12-31T01:53:56.130Z,3.36
2022-12-31T01:54:56.230Z,3.44
2022-12-31T01:55:56.146Z,3.46
2022-12-31T01:56:56.229Z,3.48
2022-12-31T01:57:56.222Z,3.46
2022-12-31T01:58:56.240Z,3.51
2022-12-31T01:59:55.371Z,3.46
2022-12-31T02:00:56.318Z,3.43
2022-12-31T02:01:56.153Z,3.48
2022-12-31T02:02:55.454Z,3.51
2022-12-31T02:03:56.149Z,3.58
2022-12-31T02:04:55.923Z,3.56
2022-12-31T02:05:56.059Z,3.56
2022-12-31T02:06:56.104Z,3.62
2022-12-31T02:07:55.350Z,3.65
2022-12-31T02:08:55.921Z,3.61
2022-12-31T02:09:56.018Z,3.64
2022-12-31T02:10:55.249Z,3.66
2022-12-31T02:11:55.240Z,3.74
2022-12-31T02:12:56.002Z,3.68
2022-12-31T02:13:58.557Z,3.76
2022-12-31T02:14:55.891Z,3.77
2022-12-31T02:15:56.235Z,3.68
2022-12-31T02:16:55.233Z,3.73
2022-12-31T02:17:55.960Z,3.68
2022-12-31T02:18:55.940Z,3.66
2022-12-31T02:19:55.172Z,3.64
2022-12-31T02:20:55.968Z,3.65
2022-12-31T02:21:55.142Z,3.68
2022-12-31T02:22:56.021Z,3.73
2022-12-31T02:23:55.142Z,3.77
2022-12-31T02:24:55.110Z,3.79
2022-12-31T02:25:55.864Z,3.80
2022-12-31T02:26:55.985Z,3.88
2022-12-31T02:27:55.141Z,3.84
2022-12-31T02:28:55.907Z,3.83
2022-12-31T02:29:55.066Z,3.74
2022-12-31T02:30:55.962Z,3.72
2022-12-31T02:31:55.919Z,3.72
2022-12-31T02:32:55.847Z,3.70
2022-12-31T02:33:56.324Z,3.73
2022-12-31T02:34:55.657Z,3.70
2022-12-31T02:35:55.775Z,3.66
2022-12-31T02:36:55.690Z,3.68
2022-12-31T02:37:55.788Z,3.65
2022-12-31T02:38:55.642Z,3.65
2022-12-31T02:39:55.902Z,3.73
2022-12-31T02:40:55.740Z,3.68
2022-12-31T02:41:54.945Z,3.73
2022-12-31T02:42:56.356Z,3.74
2022-12-31T02:43:55.773Z,3.79
2022-12-31T02:44:54.900Z,3.74
2022-12-31T02:45:55.690Z,3.73
2022-12-31T02:46:55.651Z,3.77
2022-12-31T02:47:56.198Z,3.76
2022-12-31T02:48:54.900Z,3.79
2022-12-31T02:49:55.525Z,3.82
2022-12-31T02:50:56.565Z,3.84
2022-12-31T02:51:54.837Z,3.84
2022-12-31T02:52:56.282Z,3.88
2022-12-31T02:53:55.551Z,3.91
2022-12-31T02:54:55.775Z,3.94
2022-12-31T02:55:55.490Z,3.94
2022-12-31T02:56:55.610Z,3.94
2022-12-31T02:57:54.770Z,3.86
2022-12-31T02:58:55.562Z,3.82
2022-12-31T02:59:56.270Z,3.84
2022-12-31T03:00:55.795Z,3.83
2022-12-31T03:01:54.874Z,3.86
2022-12-31T03:02:55.729Z,3.84
2022-12-31T03:03:55.449Z,3.82
2022-12-31T03:04:54.752Z,3.79
2022-12-31T03:05:55.627Z,3.79
2022-12-31T03:06:55.242Z,3.82
2022-12-31T03:07:56.128Z,3.84
2022-12-31T03:08:55.382Z,3.83
2022-12-31T03:09:55.562Z,3.90
2022-12-31T03:10:55.279Z,3.90
2022-12-31T03:11:55.751Z,3.94
2022-12-31T03:12:55.304Z,3.92
2022-12-31T03:13:55.519Z,3.91
2022-12-31T03:14:54.647Z,3.92
2022-12-31T03:15:55.637Z,3.92
2022-12-31T03:16:55.302Z,3.76
2022-12-31T03:17:55.487Z,3.72
2022-12-31T03:18:54.558Z,3.68
2022-12-31T03:19:55.390Z,3.62
2022-12-31T03:20:55.523Z,3.61
2022-12-31T03:21:55.117Z,3.61
2022-12-31T03:22:55.257Z,3.59
2022-12-31T03:23:55.129Z,3.59
2022-12-31T03:24:55.266Z,3.59
2022-12-31T03:25:55.310Z,3.62
2022-12-31T03:26:55.371Z,3.65
2022-12-31T03:27:55.129Z,3.72
2022-12-31T03:28:54.481Z,3.73
2022-12-31T03:29:55.091Z,3.68
2022-12-31T03:30:54.512Z,3.68
2022-12-31T03:31:56.292Z,3.72
2022-12-31T03:32:55.280Z,3.77
2022-12-31T03:33:55.150Z,3.76
2022-12-31T03:34:54.400Z,3.77
2022-12-31T03:35:55.679Z,3.84
2022-12-31T03:36:55.080Z,3.88
2022-12-31T03:37:55.469Z,3.88
2022-12-31T03:38:54.969Z,3.82
2022-12-31T03:39:54.352Z,3.77
2022-12-31T03:40:56.009Z,3.80
2022-12-31T03:41:55.303Z,3.84
2022-12-31T03:42:55.064Z,3.82
2022-12-31T03:43:54.292Z,3.79
2022-12-31T03:44:54.334Z,3.77
2022-12-31T03:45:54.329Z,3.73
2022-12-31T03:46:55.149Z,3.73
2022-12-31T03:47:54.339Z,3.76
2022-12-31T03:48:54.953Z,3.79
2022-12-31T03:49:55.069Z,3.76
2022-12-31T03:50:54.949Z,3.80
2022-12-31T03:51:55.010Z,3.83
2022-12-31T03:52:55.048Z,3.90
2022-12-31T03:53:54.850Z,3.94
2022-12-31T03:54:55.080Z,3.92
2022-12-31T03:55:54.839Z,3.98
2022-12-31T03:56:59.884Z,4.02
2022-12-31T03:57:54.881Z,4.00
2022-12-31T03:58:55.084Z,3.94
2022-12-31T03:59:54.850Z,3.86
2022-12-31T04:00:55.532Z,3.88
2022-12-31T04:01:54.987Z,3.88
2022-12-31T04:02:55.533Z,3.84
2022-12-31T04:03:54.779Z,3.90
2022-12-31T04:04:55.491Z,3.94
2022-12-31T04:05:54.115Z,3.95
2022-12-31T04:06:54.617Z,3.95
2022-12-31T04:07:54.111Z,4.00
2022-12-31T04:08:54.050Z,4.05
2022-12-31T04:09:54.772Z,4.09
2022-12-31T04:10:54.054Z,4.12
2022-12-31T04:11:54.841Z,4.19
2022-12-31T04:12:54.031Z,4.22
2022-12-31T04:13:54.850Z,4.27
2022-12-31T04:14:54.746Z,4.28
2022-12-31T04:15:54.729Z,4.20
2022-12-31T04:16:54.770Z,4.18
2022-12-31T04:17:54.819Z,4.22
2022-12-31T04:18:54.714Z,4.20
2022-12-31T04:19:54.713Z,4.20
2022-12-31T04:20:54.780Z,4.16
2022-12-31T04:21:54.710Z,4.08
2022-12-31T04:22:54.679Z,4.13
2022-12-31T04:23:55.279Z,4.13
2022-12-31T04:24:55.231Z,4.13
2022-12-31T04:25:54.637Z,4.02
2022-12-31T04:26:53.880Z,3.98
2022-12-31T04:27:54.516Z,3.92
2022-12-31T04:28:54.769Z,3.91
2022-12-31T04:29:53.852Z,3.95
2022-12-31T04:30:56.640Z,3.86
2022-12-31T04:31:55.183Z,3.80
2022-12-31T04:32:53.825Z,3.79
2022-12-31T04:33:55.549Z,3.88
2022-12-31T04:34:54.368Z,3.86
2022-12-31T04:35:54.483Z,3.86
2022-12-31T04:36:54.560Z,3.88
2022-12-31T04:37:55.161Z,3.77
2022-12-31T04:38:54.551Z,3.73
2022-12-31T04:39:53.819Z,3.88
2022-12-31T04:40:54.313Z,3.91
2022-12-31T04:41:53.722Z,3.97
2022-12-31T04:42:54.341Z,4.00
2022-12-31T04:43:54.486Z,4.04
2022-12-31T04:44:54.367Z,4.12
2022-12-31T04:45:54.613Z,4.15
2022-12-31T04:46:53.671Z,4.12
2022-12-31T04:47:55.000Z,4.04
2022-12-31T04:48:54.422Z,4.02
2022-12-31T04:49:54.484Z,4.04
2022-12-31T04:50:54.281Z,4.01
2022-12-31T04:51:53.622Z,3.94
2022-12-31T04:52:54.323Z,3.95
2022-12-31T04:53:53.603Z,4.00
2022-12-31T04:54:54.407Z,4.01
2022-12-31T04:55:53.601Z,4.01
2022-12-31T04:56:54.443Z,4.04
2022-12-31T04:57:54.311Z,4.01
2022-12-31T04:58:53.585Z,4.08
2022-12-31T04:59:54.247Z,4.05
2022-12-31T05:00:54.376Z,4.08
2022-12-31T05:01:53.734Z,4.05
2022-12-31T05:02:53.595Z,4.00
2022-12-31T05:03:54.320Z,4.05
2022-12-31T05:04:53.561Z,4.10
2022-12-31T05:05:54.293Z,4.13
2022-12-31T05:06:53.471Z,4.18
2022-12-31T05:07:54.173Z,4.22
2022-12-31T05:08:54.353Z,4.23
2022-12-31T05:09:55.007Z,4.18
2022-12-31T05:10:53.471Z,4.13
2022-12-31T05:11:54.243Z,4.05
2022-12-31T05:12:53.455Z,4.05
2022-12-31T05:13:54.241Z,4.09
2022-12-31T05:14:54.788Z,4.09
2022-12-31T05:15:54.314Z,4.05
2022-12-31T05:16:54.188Z,4.12
2022-12-31T05:17:54.794Z,4.10
2022-12-31T05:18:54.131Z,4.16
2022-12-31T05:19:54.270Z,4.18
2022-12-31T05:20:54.019Z,4.16
2022-12-31T05:21:54.220Z,4.12
2022-12-31T05:22:54.021Z,4.08
2022-12-31T05:23:54.093Z,4.12
2022-12-31T05:24:54.041Z,4.15
2022-12-31T05:25:53.292Z,4.09
2022-12-31T05:26:54.131Z,4.09
2022-12-31T05:27:54.787Z,4.05
2022-12-31T05:28:53.993Z,4.09
2022-12-31T05:29:53.281Z,4.16
2022-12-31T05:30:54.056Z,4.10
2022-12-31T05:31:53.983Z,4.09
2022-12-31T05:32:54.602Z,4.13
2022-12-31T05:33:54.510Z,4.15
2022-12-31T05:34:54.538Z,4.20
2022-12-31T05:35:53.880Z,4.22
2022-12-31T05:36:54.164Z,4.18
2022-12-31T05:37:53.943Z,4.13
2022-12-31T05:38:53.934Z,4.18
2022-12-31T05:39:53.855Z,4.19
2022-12-31T05:40:54.441Z,4.20
2022-12-31T05:41:53.924Z,4.26
2022-12-31T05:42:54.701Z,4.34
2022-12-31T05:43:54.401Z,4.37
2022-12-31T05:44:53.772Z,4.40
2022-12-31T05:45:53.138Z,4.33
2022-12-31T05:46:53.808Z,4.34
2022-12-31T05:47:54.250Z,4.37
2022-12-31T05:48:53.659Z,4.37
2022-12-31T05:49:53.961Z,4.35
2022-12-31T05:50:53.802Z,4.40
2022-12-31T05:51:54.459Z,4.40
2022-12-31T05:52:53.685Z,4.37
2022-12-31T05:53:53.932Z,4.43
2022-12-31T05:54:53.690Z,4.48
2022-12-31T05:55:52.996Z,4.46
2022-12-31T05:56:53.741Z,4.46
2022-12-31T05:57:52.980Z,4.48
2022-12-31T05:58:53.772Z,4.38
2022-12-31T05:59:53.560Z,4.40
2022-12-31T06:00:54.422Z,4.40
2022-12-31T06:01:54.269Z,4.34
2022-12-31T06:02:53.789Z,4.34
2022-12-31T06:03:53.791Z,4.41
2022-12-31T06:04:52.911Z,4.48
2022-12-31T06:05:53.645Z,4.52
2022-12-31T06:06:52.863Z,4.55
2022-12-31T06:07:53.521Z,4.56
2022-12-31T06:08:53.960Z,4.61
2022-12-31T06:09:52.904Z,4.64
2022-12-31T06:10:53.701Z,4.69
2022-12-31T06:11:53.638Z,4.66
2022-12-31T06:12:53.665Z,4.59
2022-12-31T06:13:53.524Z,4.63
2022-12-31T06:14:54.361Z,4.67
2022-12-31T06:15:53.726Z,4.64
2022-12-31T06:16:53.495Z,4.66
2022-12-31T06:17:54.120Z,4.64
2022-12-31T06:18:53.021Z,4.55
2022-12-31T06:19:53.581Z,4.55
2022-12-31T06:20:54.264Z,4.55
2022-12-31T06:21:53.675Z,4.59
2022-12-31T06:22:52.728Z,4.69
2022-12-31T06:23:53.510Z,4.71
2022-12-31T06:24:54.397Z,4.69
2022-12-31T06:25:53.550Z,4.73
2022-12-31T06:26:54.131Z,4.80
2022-12-31T06:27:52.673Z,4.79
2022-12-31T06:28:53.383Z,4.74
2022-12-31T06:29:54.245Z,4.70
2022-12-31T06:30:52.751Z,4.69
2022-12-31T06:31:53.344Z,4.67
2022-12-31T06:32:53.330Z,4.63
2022-12-31T06:33:53.250Z,4.71
2022-12-31T06:34:53.474Z,4.71
2022-12-31T06:35:54.371Z,4.70
2022-12-31T06:36:53.511Z,4.67
2022-12-31T06:37:53.180Z,4.67
2022-12-31T06:38:53.331Z,4.73
2022-12-31T06:39:54.291Z,4.76
2022-12-31T06:40:53.596Z,4.76
2022-12-31T06:41:53.882Z,4.76
2022-12-31T06:42:59.529Z,4.85
2022-12-31T06:43:53.883Z,4.79
2022-12-31T06:44:53.302Z,4.85
2022-12-31T06:45:53.959Z,4.89
2022-12-31T06:46:53.503Z,4.88
2022-12-31T06:47:54.172Z,4.93
2022-12-31T06:48:53.203Z,4.92
2022-12-31T06:49:53.241Z,4.89
2022-12-31T06:50:53.982Z,4.88
2022-12-31T06:51:53.375Z,4.90
2022-12-31T06:52:53.050Z,4.86
2022-12-31T06:53:53.285Z,4.93
2022-12-31T06:54:53.140Z,4.96
2022-12-31T06:55:53.121Z,4.99
2022-12-31T06:56:53.114Z,5.03
2022-12-31T06:57:53.166Z,5.04
2022-12-31T06:58:53.102Z,5.07
2022-12-31T06:59:53.209Z,5.06
2022-12-31T07:00:53.010Z,5.07
2022-12-31T07:01:52.452Z,5.06
2022-12-31T07:02:53.867Z,5.01
2022-12-31T07:03:52.922Z,5.01
2022-12-31T07:04:53.672Z,4.98
2022-12-31T07:05:52.298Z,4.95
2022-12-31T07:06:52.306Z,5.01
2022-12-31T07:07:53.001Z,5.01
2022-12-31T07:08:52.237Z,5.04
2022-12-31T07:09:53.002Z,4.99
2022-12-31T07:10:52.212Z,4.96
2022-12-31T07:11:53.032Z,4.98
2022-12-31T07:12:53.751Z,4.90
2022-12-31T07:13:52.962Z,4.80
2022-12-31T07:14:53.948Z,4.85
2022-12-31T07:15:53.003Z,4.85
2022-12-31T07:16:52.961Z,4.79
2022-12-31T07:17:53.991Z,4.85
2022-12-31T07:18:53.821Z,4.77
2022-12-31T07:19:57.524Z,4.73
2022-12-31T07:20:53.114Z,4.71
2022-12-31T07:21:52.109Z,4.79
2022-12-31T07:22:52.907Z,4.79
2022-12-31T07:23:54.872Z,4.88
2022-12-31T07:24:53.495Z,4.96
2022-12-31T07:25:53.631Z,4.99
2022-12-31T07:26:56.773Z,5.03
2022-12-31T07:27:53.148Z,5.06
2022-12-31T07:28:52.796Z,5.10
2022-12-31T07:29:52.879Z,5.11
2022-12-31T07:30:52.911Z,5.10
2022-12-31T07:31:52.017Z,5.07
2022-12-31T07:32:51.989Z,5.13
2022-12-31T07:33:52.750Z,5.17
2022-12-31T07:34:52.820Z,5.19
2022-12-31T07:35:51.960Z,5.25
2022-12-31T07:36:52.728Z,5.31
2022-12-31T07:37:53.611Z,5.39
2022-12-31T07:38:51.939Z,5.42
2022-12-31T07:39:52.752Z,5.46
2022-12-31T07:40:51.921Z,5.40
2022-12-31T07:41:52.568Z,5.33
2022-12-31T07:42:53.376Z,5.29
2022-12-31T07:43:52.601Z,5.33
2022-12-31T07:44:52.815Z,5.29
2022-12-31T07:45:52.682Z,5.29
2022-12-31T07:46:51.874Z,5.24
2022-12-31T07:47:51.839Z,5.25
2022-12-31T07:48:53.740Z,5.24
2022-12-31T07:49:52.561Z,5.24
2022-12-31T07:50:52.503Z,5.28
2022-12-31T07:51:52.543Z,5.31
2022-12-31T07:52:52.450Z,5.29
2022-12-31T07:53:51.791Z,5.28
2022-12-31T07:54:52.512Z,5.36
2022-12-31T07:55:52.591Z,5.46
2022-12-31T07:56:52.534Z,5.53
2022-12-31T07:57:52.574Z,5.62
2022-12-31T07:58:52.548Z,5.74
2022-12-31T07:59:52.562Z,5.77
2022-12-31T08:00:51.764Z,5.69
2022-12-31T08:01:53.298Z,5.61
2022-12-31T08:02:52.828Z,5.65
2022-12-31T08:03:52.611Z,5.71
2022-12-31T08:04:52.386Z,5.86
2022-12-31T08:05:52.232Z,6.04
2022-12-31T08:06:52.502Z,6.21
2022-12-31T08:07:52.350Z,6.29
2022-12-31T08:08:51.656Z,6.27
2022-12-31T08:09:52.302Z,6.27
2022-12-31T08:10:52.472Z,6.32
2022-12-31T08:11:51.633Z,6.39
2022-12-31T08:12:51.607Z,6.49
2022-12-31T08:13:52.359Z,6.57
2022-12-31T08:14:51.588Z,6.55
2022-12-31T08:15:52.429Z,6.56
2022-12-31T08:16:52.341Z,6.73
2022-12-31T08:17:51.605Z,6.60
2022-12-31T08:18:52.441Z,6.77
2022-12-31T08:19:52.341Z,6.85
2022-12-31T08:20:51.510Z,6.96
2022-12-31T08:21:52.228Z,7.10
2022-12-31T08:22:51.556Z,6.88
2022-12-31T08:23:52.351Z,6.49
2022-12-31T08:24:51.441Z,6.48
2022-12-31T08:25:53.401Z,6.59
2022-12-31T08:26:53.354Z,6.67
2022-12-31T08:27:52.322Z,6.85
2022-12-31T08:28:52.161Z,6.96
2022-12-31T08:29:52.221Z,7.10
2022-12-31T08:30:51.413Z,7.14
2022-12-31T08:31:52.311Z,7.03
2022-12-31T08:32:51.372Z,7.07
2022-12-31T08:33:52.282Z,7.29
2022-12-31T08:34:52.255Z,7.53
2022-12-31T08:35:52.249Z,7.80
2022-12-31T08:36:52.070Z,8.08
2022-12-31T08:37:51.346Z,8.24
2022-12-31T08:38:52.271Z,8.31
2022-12-31T08:39:51.903Z,8.45
2022-12-31T08:40:52.129Z,8.63
2022-12-31T08:41:51.351Z,8.64
2022-12-31T08:42:51.762Z,8.49
2022-12-31T08:43:51.969Z,8.47
2022-12-31T08:44:51.377Z,8.39
2022-12-31T08:45:52.027Z,8.57
2022-12-31T08:46:52.194Z,8.75
2022-12-31T08:47:56.475Z,8.82
2022-12-31T08:48:52.589Z,8.82
2022-12-31T08:49:52.462Z,8.80
2022-12-31T08:50:52.047Z,8.75
2022-12-31T08:51:51.901Z,8.77
2022-12-31T08:52:51.839Z,8.90
2022-12-31T08:53:52.263Z,8.72
2022-12-31T08:54:51.981Z,8.67
2022-12-31T08:55:51.191Z,8.87
2022-12-31T08:56:52.490Z,9.03
2022-12-31T08:57:51.932Z,9.16
2022-12-31T08:58:51.849Z,9.26
2022-12-31T08:59:51.990Z,9.26
2022-12-31T09:00:51.922Z,9.47
2022-12-31T09:01:51.214Z,9.47
2022-12-31T09:02:51.751Z,9.59
2022-12-31T09:03:51.957Z,9.69
2022-12-31T09:04:52.750Z,9.67
2022-12-31T09:05:51.922Z,9.83
2022-12-31T09:06:52.072Z,9.80
2022-12-31T09:07:51.842Z,9.91
2022-12-31T09:08:51.926Z,9.90
2022-12-31T09:09:51.008Z,10.04
2022-12-31T09:10:51.881Z,10.00
2022-12-31T09:11:51.750Z,10.12
2022-12-31T09:12:51.781Z,10.06
2022-12-31T09:13:51.020Z,9.90
2022-12-31T09:14:51.853Z,9.54
2022-12-31T09:15:51.823Z,9.61
2022-12-31T09:16:51.834Z,10.01
2022-12-31T09:17:51.743Z,10.15
2022-12-31T09:18:50.901Z,10.54
2022-12-31T09:19:51.659Z,11.00
2022-12-31T09:20:51.695Z,11.20
2022-12-31T09:21:50.931Z,11.58
2022-12-31T09:22:52.745Z,11.72
2022-12-31T09:23:51.917Z,12.07
2022-12-31T09:24:52.125Z,12.65
2022-12-31T09:25:51.504Z,13.30
2022-12-31T09:26:52.301Z,13.67
2022-12-31T09:27:51.783Z,13.86
2022-12-31T09:28:52.212Z,13.41
2022-12-31T09:29:51.202Z,12.82
2022-12-31T09:30:52.296Z,12.18
2022-12-31T09:31:50.877Z,11.83
2022-12-31T09:32:55.339Z,11.61
2022-12-31T09:33:51.798Z,11.62
2022-12-31T09:34:51.481Z,11.29
2022-12-31T09:35:51.568Z,11.12
2022-12-31T09:36:51.589Z,11.14
2022-12-31T09:37:52.279Z,11.12
2022-12-31T09:38:50.722Z,11.20
2022-12-31T09:39:51.569Z,10.85
2022-12-31T09:40:51.570Z,10.75
2022-12-31T09:41:51.325Z,10.82
2022-12-31T09:42:50.726Z,10.52
2022-12-31T09:43:57.365Z,10.41
2022-12-31T09:44:52.211Z,10.38
2022-12-31T09:45:51.686Z,10.74
2022-12-31T09:46:51.423Z,10.83
2022-12-31T09:47:51.689Z,10.64
2022-12-31T09:48:51.020Z,10.60
2022-12-31T09:49:52.161Z,10.65
2022-12-31T09:50:51.500Z,10.82
2022-12-31T09:51:51.320Z,10.77
2022-12-31T09:52:51.371Z,10.93
2022-12-31T09:53:51.362Z,10.93
2022-12-31T09:54:50.582Z,10.83
2022-12-31T09:55:51.388Z,10.60
2022-12-31T09:56:57.108Z,10.82
2022-12-31T09:57:51.991Z,10.77
2022-12-31T09:58:50.502Z,10.68
2022-12-31T09:59:51.387Z,10.41
2022-12-31T10:00:51.200Z,10.20
2022-12-31T10:01:51.497Z,10.06
2022-12-31T10:02:50.572Z,10.02
2022-12-31T10:03:51.252Z,10.09
2022-12-31T10:04:52.165Z,10.10
2022-12-31T10:05:50.446Z,10.34
2022-12-31T10:06:51.299Z,10.35
2022-12-31T10:07:53.415Z,9.95
2022-12-31T10:08:50.400Z,9.62
2022-12-31T10:09:51.324Z,9.73
2022-12-31T10:10:50.457Z,9.73
2022-12-31T10:11:51.594Z,9.73
2022-12-31T10:12:51.182Z,10.06
2022-12-31T10:13:52.060Z,10.45
2022-12-31T10:14:51.139Z,10.70
2022-12-31T10:15:50.386Z,10.60
2022-12-31T10:16:50.338Z,10.57
2022-12-31T10:17:50.341Z,10.30
2022-12-31T10:18:51.093Z,9.80
2022-12-31T10:19:50.310Z,9.65
2022-12-31T10:20:50.314Z,9.49
2022-12-31T10:21:51.045Z,9.90
2022-12-31T10:22:51.171Z,9.98
2022-12-31T10:23:51.942Z,10.34
2022-12-31T10:24:51.141Z,10.70
2022-12-31T10:25:50.223Z,10.67
2022-12-31T10:26:53.382Z,10.83
2022-12-31T10:27:51.002Z,10.78
2022-12-31T10:28:51.174Z,10.86
2022-12-31T10:29:50.189Z,11.00
2022-12-31T10:30:50.950Z,11.33
2022-12-31T10:31:50.171Z,11.44
2022-12-31T10:32:50.710Z,11.48
2022-12-31T10:33:50.131Z,11.47
2022-12-31T10:34:50.804Z,11.41
2022-12-31T10:35:50.923Z,11.43
2022-12-31T10:36:50.869Z,11.61
2022-12-31T10:37:51.042Z,11.61
2022-12-31T10:38:50.858Z,11.29
2022-12-31T10:39:50.971Z,11.00
2022-12-31T10:40:50.947Z,10.89
2022-12-31T10:41:50.932Z,10.86
2022-12-31T10:42:50.106Z,11.17
2022-12-31T10:43:50.752Z,11.74
2022-12-31T10:44:50.803Z,12.03
2022-12-31T10:45:50.805Z,11.77
2022-12-31T10:46:50.913Z,11.80
2022-12-31T10:47:50.022Z,11.66
2022-12-31T10:48:50.232Z,12.00
2022-12-31T10:49:51.214Z,12.14
2022-12-31T10:50:50.245Z,12.40
2022-12-31T10:51:51.111Z,12.54
2022-12-31T10:52:50.764Z,12.42
2022-12-31T10:53:49.962Z,12.25
2022-12-31T10:54:50.795Z,12.14
2022-12-31T10:55:49.940Z,12.14
2022-12-31T10:56:50.741Z,12.10
2022-12-31T10:57:50.671Z,11.96
2022-12-31T10:58:50.696Z,11.50
2022-12-31T10:59:51.562Z,11.79
2022-12-31T11:00:49.870Z,11.51
2022-12-31T11:01:50.825Z,11.46
2022-12-31T11:02:50.644Z,11.33
2022-12-31T11:03:51.346Z,11.29
2022-12-31T11:04:50.630Z,11.40
2022-12-31T11:05:51.532Z,11.25
2022-12-31T11:06:50.483Z,11.03
2022-12-31T11:07:49.812Z,10.72
2022-12-31T11:08:50.504Z,10.41
2022-12-31T11:09:50.717Z,10.33
2022-12-31T11:10:50.619Z,10.52
2022-12-31T11:11:50.540Z,10.46
2022-12-31T11:12:50.525Z,10.37
2022-12-31T11:13:50.551Z,10.26
2022-12-31T11:14:49.740Z,10.20
2022-12-31T11:15:50.305Z,10.28
2022-12-31T11:16:50.390Z,10.22
2022-12-31T11:17:49.690Z,10.27
2022-12-31T11:18:50.516Z,10.37
2022-12-31T11:19:51.152Z,10.37
2022-12-31T11:20:50.514Z,10.34
2022-12-31T11:21:50.410Z,10.38
2022-12-31T11:22:50.411Z,10.53
2022-12-31T11:23:50.375Z,10.48
2022-12-31T11:24:50.485Z,10.49
2022-12-31T11:25:50.363Z,10.45
2022-12-31T11:26:50.510Z,10.28
2022-12-31T11:27:49.742Z,10.10
2022-12-31T11:28:49.923Z,10.20
2022-12-31T11:29:50.389Z,10.20
2022-12-31T11:30:50.247Z,10.28
2022-12-31T11:31:50.430Z,10.28
2022-12-31T11:32:50.300Z,10.30
2022-12-31T11:33:50.770Z,10.30
2022-12-31T11:34:50.321Z,10.37
2022-12-31T11:35:49.523Z,10.16
2022-12-31T11:36:50.201Z,10.20
2022-12-31T11:37:50.366Z,10.22
2022-12-31T11:38:50.270Z,10.15
2022-12-31T11:39:50.386Z,10.13
2022-12-31T11:40:50.572Z,10.23
2022-12-31T11:41:50.553Z,10.28
2022-12-31T11:42:50.762Z,10.27
2022-12-31T11:43:50.490Z,10.26
2022-12-31T11:44:50.283Z,10.20
2022-12-31T11:45:50.783Z,10.27
2022-12-31T11:46:50.267Z,10.33
2022-12-31T11:48:28.528Z,10.31
2022-12-31T11:48:50.750Z,10.34
2022-12-31T11:49:50.163Z,10.28
2022-12-31T11:50:50.243Z,10.10
2022-12-31T11:51:50.881Z,10.10
2022-12-31T11:52:50.141Z,10.08
2022-12-31T11:53:50.139Z,10.01
2022-12-31T11:54:50.340Z,10.04
2022-12-31T11:55:50.232Z,10.04
2022-12-31T11:56:50.253Z,9.98
2022-12-31T11:57:50.077Z,9.98
2022-12-31T11:58:49.282Z,9.93
2022-12-31T11:59:50.304Z,9.91
2022-12-31T12:00:49.300Z,9.90
2022-12-31T12:01:50.071Z,9.91
2022-12-31T12:02:49.929Z,9.90
2022-12-31T12:03:50.246Z,9.83
2022-12-31T12:04:49.941Z,9.76
2022-12-31T12:05:50.267Z,9.75
2022-12-31T12:06:49.849Z,9.72
2022-12-31T12:07:50.013Z,9.67
2022-12-31T12:08:50.031Z,9.64
2022-12-31T12:09:50.045Z,9.64
2022-12-31T12:10:49.929Z,9.69
2022-12-31T12:11:49.970Z,9.70
2022-12-31T12:12:49.900Z,9.62
2022-12-31T12:13:49.122Z,9.59
2022-12-31T12:14:49.900Z,9.64
2022-12-31T12:15:49.811Z,9.64
2022-12-31T12:16:49.111Z,9.67
2022-12-31T12:17:49.710Z,9.73
2022-12-31T12:18:49.083Z,9.79
2022-12-31T12:19:49.697Z,9.76
2022-12-31T12:20:49.889Z,9.75
2022-12-31T12:21:49.733Z,9.73
2022-12-31T12:22:49.951Z,9.75
2022-12-31T12:23:49.722Z,9.76
2022-12-31T12:24:49.840Z,9.77
2022-12-31T12:25:49.713Z,9.67
2022-12-31T12:26:49.822Z,9.61
2022-12-31T12:27:49.727Z,9.54
2022-12-31T12:28:49.750Z,9.52
2022-12-31T12:29:49.731Z,9.57
2022-12-31T12:30:50.161Z,9.62
2022-12-31T12:31:50.055Z,9.73
2022-12-31T12:32:50.991Z,9.77
2022-12-31T12:33:49.870Z,9.77
2022-12-31T12:34:50.442Z,9.95
2022-12-31T12:35:49.774Z,10.04
2022-12-31T12:36:49.601Z,10.02
2022-12-31T12:37:50.049Z,9.98
2022-12-31T12:38:49.624Z,10.01
2022-12-31T12:39:49.681Z,10.13
2022-12-31T12:40:49.821Z,10.04
2022-12-31T12:41:50.021Z,10.04
2022-12-31T12:42:49.604Z,10.08
2022-12-31T12:43:49.826Z,10.09
2022-12-31T12:44:49.531Z,10.06
2022-12-31T12:45:52.419Z,10.04
2022-12-31T12:46:49.595Z,10.02
2022-12-31T12:47:49.600Z,9.97
2022-12-31T12:48:49.558Z,10.08
2022-12-31T12:49:49.482Z,10.12
2022-12-31T12:50:49.593Z,10.18
2022-12-31T12:51:49.401Z,10.20
2022-12-31T12:52:49.510Z,10.22
2022-12-31T12:53:49.740Z,10.22
2022-12-31T12:54:50.117Z,10.19
2022-12-31T12:55:49.369Z,10.23
2022-12-31T12:56:49.557Z,10.28
2022-12-31T12:57:49.503Z,10.38
2022-12-31T12:58:49.588Z,10.45
2022-12-31T12:59:49.358Z,10.45
2022-12-31T13:00:49.457Z,10.33
2022-12-31T13:01:49.557Z,10.35
2022-12-31T13:02:49.505Z,10.46
2022-12-31T13:04:31.909Z,10.53
2022-12-31T13:04:50.029Z,10.56
2022-12-31T13:05:49.367Z,10.54
2022-12-31T13:06:49.360Z,10.52
2022-12-31T13:07:49.491Z,10.48
2022-12-31T13:08:49.199Z,10.46
2022-12-31T13:09:49.675Z,10.45
2022-12-31T13:10:49.370Z,10.48
2022-12-31T13:11:49.365Z,10.49
2022-12-31T13:13:22.624Z,10.45